الصفحة الرئيسية
METAR-TAF:

METAR-TAF

مطار :

فولغوغراد, روسيا

دائرة عرض: 48-47N, خط طول: 044-22E, ارتفاع: 145 متر

مراقبة الطقس الحالي

تاريخ ووقت الإصدار 40 دقيقة قبل الساعة 09:30UTC
ريح 12 عقدة من الشمال الغربي, الاتجاه يتراوح بين الغرب/الشمال الغربي و الشمال
درجة الحرارة 26°درجة مئوية
الرطوبة 37%
ضغط 1004 hPa
الرؤية 10 كم أو أكثر
الغيوم لا تقل 1500 م ولا وجود لمزنة ركامية السحاب الأسود

METAR: URWW 250930Z 32006MPS 290V360 CAVOK 26/10 Q1004 R23/010070 NOSIG

زمن: 14:10 (10:10 UTC)

توقعات

تاريخ ووقت الإصدار 2ساعات و 17 دقيقة قبل الساعة 07:53UTC
التوقعات صالحة من25 الساعة 09 UTC إلى 25 الساعة 18 UTC
ريح 10 عقدة من الشمال الغربي تتزايد حتى 23 عقدة
الرؤية 10 كم أو أكثر
غيوم مفككة على ارتفاع 1600 قدم
غيوم متفرقة على ارتفاع 3000 قدم, مزنة ركامية.
مؤقت
من 25 الساعة 09 UTC إلى 25 الساعة 18 UTC
ريح 14 عقدة من الشمال/الشمال الغربي تتزايد حتى 27 عقدة
زخات من الأمطار الخفيفة,

TAF: URWW 250753Z 2509/2518 31005G12MPS 9999 BKN016 SCT030CB TEMPO 2509/2518 34007G14MPS -SHRA

أرصاد الطقس والتوقعات من أكثر من 4000 مطار (تقارير الطقس للمطار METAR والتنبؤ بالطقس بالمطارTAF).

المحطات المتاحة هي النقط الصفراء والحمراء على الخريطة.

حرك المؤشر فوق النقطة لمعرفة اسم المحطة.

ثم انقر لمعرفة أرصاد وتوقعات الطقس.

لتغيير الخارطة: اضغط على الأزرار الخضراء مع رمز الصليب الأسود للتكبير. على الزر الأخضر مع شرطة للتصغير، أو على الأسهم الخضراء للخرائط المجاورة.


METAR-TAF: